createdAt,value
2022-08-10T00:00:45.848Z,102422.23
2022-08-10T00:01:45.779Z,102423.06
2022-08-10T00:02:46.386Z,102423.80
2022-08-10T00:03:48.132Z,102424.45
2022-08-10T00:04:48.566Z,102425.24
2022-08-10T00:05:52.801Z,102425.64
2022-08-10T00:06:48.179Z,102426.42
2022-08-10T00:07:48.970Z,102426.74
2022-08-10T00:08:49.087Z,102426.81
2022-08-10T00:08:57.754Z,102436.05
2022-08-10T00:09:59.152Z,102440.12
2022-08-10T00:10:58.451Z,102439.78
2022-08-10T00:11:59.677Z,102440.03
2022-08-10T00:12:59.473Z,102440.16
2022-08-10T00:13:59.810Z,102439.80
2022-08-10T00:15:00.260Z,102440.27
2022-08-10T00:16:00.567Z,102440.43
2022-08-10T00:17:01.895Z,102440.21
2022-08-10T00:18:02.466Z,102440.37
2022-08-10T00:19:03.167Z,102440.03
2022-08-10T00:20:08.546Z,102439.59
2022-08-10T00:21:02.998Z,102439.59
2022-08-10T00:22:04.872Z,102439.47
2022-08-10T00:23:05.419Z,102438.91
2022-08-10T00:24:06.071Z,102438.78
2022-08-10T00:25:05.368Z,102438.52
2022-08-10T00:26:05.442Z,102438.44
2022-08-10T00:27:50.119Z,102438.69
2022-08-10T00:28:06.237Z,102438.43
2022-08-10T00:29:09.293Z,102437.76
2022-08-10T00:30:06.486Z,102437.80
2022-08-10T00:31:07.668Z,102437.47
2022-08-10T00:32:07.385Z,102437.59
2022-08-10T00:32:16.073Z,102438.45
2022-08-10T00:33:16.439Z,102434.90
2022-08-10T00:34:17.823Z,102434.82
2022-08-10T00:35:17.999Z,102434.73
2022-08-10T00:36:18.558Z,102434.81
2022-08-10T00:37:19.263Z,102434.81
2022-08-10T00:38:18.623Z,102434.64
2022-08-10T00:39:20.279Z,102434.22
2022-08-10T00:40:19.191Z,102433.79
2022-08-10T00:41:19.629Z,102433.28
2022-08-10T00:42:20.216Z,102433.63
2022-08-10T00:43:23.434Z,102433.54
2022-08-10T00:44:21.050Z,102432.86
2022-08-10T00:45:21.669Z,102432.67
2022-08-10T00:46:22.545Z,102432.02
2022-08-10T00:47:36.823Z,102431.37
2022-08-10T00:48:23.546Z,102431.19
2022-08-10T00:49:23.852Z,102431.14
2022-08-10T00:50:25.735Z,102430.32
2022-08-10T00:51:40.345Z,102430.14
2022-08-10T00:52:26.327Z,102429.22
2022-08-10T00:53:26.472Z,102428.83
2022-08-10T00:54:28.112Z,102428.47
2022-08-10T00:55:27.200Z,102427.81
2022-08-10T00:57:09.100Z,102427.41
2022-08-10T00:57:27.771Z,102427.01
2022-08-10T00:57:39.446Z,102426.91
2022-08-10T00:58:41.073Z,102421.93
2022-08-10T00:59:59.138Z,102421.76
2022-08-10T01:00:40.880Z,102421.76
2022-08-10T01:02:09.257Z,102421.76
2022-08-10T01:02:41.495Z,102422.52
2022-08-10T01:04:40.206Z,102422.01
2022-08-10T01:05:00.030Z,102422.01
2022-08-10T01:05:51.398Z,102422.01
2022-08-10T01:06:44.268Z,102422.09
2022-08-10T01:07:45.601Z,102422.56
2022-08-10T01:08:46.495Z,102422.67
2022-08-10T01:09:55.683Z,102423.33
2022-08-10T01:10:46.148Z,102423.33
2022-08-10T01:12:38.896Z,102423.48
2022-08-10T01:12:46.859Z,102423.50
2022-08-10T01:13:47.781Z,102423.41
2022-08-10T01:14:48.200Z,102422.91
2022-08-10T01:15:49.784Z,102422.49
2022-08-10T01:16:50.438Z,102421.95
2022-08-10T01:17:51.661Z,102421.20
2022-08-10T01:18:50.752Z,102420.63
2022-08-10T01:19:52.407Z,102420.05
2022-08-10T01:20:01.076Z,102421.89
2022-08-10T01:21:02.031Z,102415.83
2022-08-10T01:22:03.267Z,102415.75
2022-08-10T01:23:03.443Z,102415.28
2022-08-10T01:24:03.951Z,102415.25
2022-08-10T01:25:04.707Z,102415.03
2022-08-10T01:26:12.538Z,102415.14
2022-08-10T01:27:04.678Z,102414.67
2022-08-10T01:28:05.271Z,102414.64
2022-08-10T01:29:06.485Z,102414.70
2022-08-10T01:30:06.667Z,102414.45
2022-08-10T01:31:07.238Z,102414.59
2022-08-10T01:32:09.022Z,102414.61
2022-08-10T01:33:07.462Z,102415.00
2022-08-10T01:34:09.153Z,102415.48
2022-08-10T01:35:09.793Z,102415.25
2022-08-10T01:36:09.493Z,102415.09
2022-08-10T01:37:11.041Z,102415.23
2022-08-10T01:38:10.485Z,102415.12
2022-08-10T01:39:11.801Z,102415.39
2022-08-10T01:40:11.373Z,102415.88
2022-08-10T01:41:11.960Z,102416.06
2022-08-10T01:42:13.845Z,102415.69
2022-08-10T01:42:22.561Z,102415.61
2022-08-10T01:43:24.361Z,102413.37
2022-08-10T01:44:24.855Z,102413.20
2022-08-10T01:45:25.309Z,102413.23
2022-08-10T01:46:26.269Z,102413.62
2022-08-10T01:47:27.406Z,102413.78
2022-08-10T01:48:25.896Z,102414.21
2022-08-10T01:49:26.987Z,102414.29
2022-08-10T01:50:27.453Z,102414.73
2022-08-10T01:51:27.894Z,102415.50
2022-08-10T01:52:28.367Z,102415.89
2022-08-10T01:53:27.799Z,102416.15
2022-08-10T01:54:27.973Z,102416.58
2022-08-10T01:55:29.679Z,102416.55
2022-08-10T01:56:30.477Z,102416.76
2022-08-10T01:57:30.614Z,102417.03
2022-08-10T01:58:30.828Z,102417.33
2022-08-10T01:59:29.975Z,102417.80
2022-08-10T02:00:31.586Z,102417.81
2022-08-10T02:01:32.045Z,102418.38
2022-08-10T02:02:31.339Z,102418.77
2022-08-10T02:03:32.201Z,102419.52
2022-08-10T02:04:04.982Z,102430.10
2022-08-10T02:04:41.129Z,102427.63
2022-08-10T02:05:42.816Z,102427.64
2022-08-10T02:06:43.559Z,102427.25
2022-08-10T02:07:43.975Z,102427.09
2022-08-10T02:08:43.371Z,102427.30
2022-08-10T02:09:44.725Z,102427.31
2022-08-10T02:10:45.425Z,102426.98
2022-08-10T02:12:05.403Z,102427.12
2022-08-10T02:12:46.248Z,102427.34
2022-08-10T02:13:48.101Z,102427.56
2022-08-10T02:14:48.702Z,102428.12
2022-08-10T02:16:01.511Z,102428.56
2022-08-10T02:16:48.669Z,102428.33
2022-08-10T02:17:57.900Z,102427.65
2022-08-10T02:18:50.098Z,102427.66
2022-08-10T02:19:52.108Z,102427.33
2022-08-10T02:20:51.745Z,102426.80
2022-08-10T02:22:35.380Z,102426.89
2022-08-10T02:22:53.052Z,102426.98
2022-08-10T02:23:56.144Z,102427.39
2022-08-10T02:24:53.645Z,102427.65
2022-08-10T02:25:02.240Z,102433.28
2022-08-10T02:26:03.670Z,102428.79
2022-08-10T19:30:14.069Z,102080.39
2022-08-10T19:31:11.696Z,102069.33
2022-08-10T19:32:12.186Z,102069.37
2022-08-10T19:33:20.402Z,102069.44
2022-08-10T19:34:13.750Z,102069.27
2022-08-10T19:35:16.499Z,102069.89
2022-08-10T19:36:14.798Z,102070.46
2022-08-10T19:37:15.916Z,102070.83
2022-08-10T19:38:17.031Z,102071.30
2022-08-10T19:39:19.493Z,102071.50
2022-08-10T19:40:17.472Z,102072.17
2022-08-10T19:41:18.262Z,102072.85
2022-08-10T19:42:31.583Z,102073.22
2022-08-10T19:43:20.783Z,102073.97
2022-08-10T19:44:20.919Z,102074.74
2022-08-10T19:46:00.628Z,102074.82
2022-08-10T19:46:27.481Z,102076.09
2022-08-10T19:47:22.683Z,102076.73
2022-08-10T19:47:44.154Z,102093.03
2022-08-10T19:48:44.411Z,102087.28
2022-08-10T19:49:45.326Z,102087.34
2022-08-10T19:50:46.129Z,102087.27
2022-08-10T19:51:54.004Z,102087.78
2022-08-10T19:52:49.548Z,102088.13
2022-08-10T19:53:49.483Z,102088.33
2022-08-10T19:54:48.664Z,102088.63
2022-08-10T19:55:51.323Z,102090.19
2022-08-10T19:56:45.152Z,102097.64
2022-08-10T19:57:48.563Z,102096.73
2022-08-10T19:58:46.071Z,102096.48
2022-08-10T20:00:06.328Z,102096.23
2022-08-10T20:00:54.286Z,102096.29
2022-08-10T20:01:56.176Z,102095.72
2022-08-10T20:02:50.817Z,102095.67
2022-08-10T20:03:48.098Z,102095.30
2022-08-10T20:04:50.921Z,102095.36
2022-08-10T20:06:18.472Z,102095.31
2022-08-10T20:06:49.112Z,102095.12
2022-08-10T20:07:49.134Z,102094.85
2022-08-10T20:08:53.637Z,102094.23
2022-08-10T20:09:55.035Z,102094.63
2022-08-10T20:10:50.726Z,102094.16
2022-08-10T20:11:51.669Z,102094.86
2022-08-10T20:12:59.370Z,102095.38
2022-08-10T20:13:52.161Z,102095.41
2022-08-10T20:14:40.352Z,102107.20
2022-08-10T20:15:42.672Z,102102.78
2022-08-10T20:16:41.280Z,102101.84
2022-08-10T20:17:51.226Z,102102.02
2022-08-10T20:18:42.586Z,102101.67
2022-08-10T20:19:52.493Z,102100.73
2022-08-10T20:20:43.503Z,102100.44
2022-08-10T20:21:45.886Z,102100.17
2022-08-10T20:22:44.838Z,102100.55
2022-08-10T20:23:53.870Z,102100.94
2022-08-10T20:24:45.863Z,102100.67
2022-08-10T20:25:46.696Z,102100.84
2022-08-10T20:26:48.247Z,102100.36
2022-08-10T20:28:06.788Z,102100.66
2022-08-10T20:28:48.938Z,102101.16
2022-08-10T20:29:58.604Z,102101.83
2022-08-10T20:30:51.918Z,102101.98
2022-08-10T20:32:04.173Z,102110.68
2022-08-10T20:33:13.821Z,102112.91
2022-08-10T20:34:07.874Z,102112.80
2022-08-10T20:35:10.353Z,102112.29
2022-08-10T20:36:19.804Z,102112.12
2022-08-10T20:37:41.144Z,102111.94
2022-08-10T20:38:20.848Z,102112.63
2022-08-10T20:39:21.269Z,102112.48
2022-08-10T20:40:22.081Z,102112.29
2022-08-10T20:41:22.971Z,102112.91
2022-08-10T20:42:23.895Z,102112.53
2022-08-10T20:43:24.736Z,102112.77
2022-08-10T20:44:24.935Z,102112.32
2022-08-10T20:45:25.124Z,102112.75
2022-08-10T20:46:25.593Z,102112.16
2022-08-10T20:47:26.343Z,102112.41
2022-08-10T20:48:30.234Z,102112.27
2022-08-10T20:49:34.113Z,102112.86
2022-08-10T20:49:47.797Z,102116.73
2022-08-10T20:50:50.358Z,102118.11
2022-08-10T20:51:59.260Z,102117.86
2022-08-10T20:52:48.128Z,102117.48
2022-08-10T20:53:50.486Z,102116.96
2022-08-10T20:54:56.453Z,102116.79
2022-08-10T20:55:53.927Z,102116.87
2022-08-10T20:56:58.119Z,102117.13
2022-08-10T20:58:04.335Z,102117.02
2022-08-10T20:58:51.251Z,102117.09
2022-08-10T21:00:02.360Z,102117.05
2022-08-10T21:01:00.100Z,102116.97
2022-08-10T21:02:06.511Z,102116.59
